createdAt,value
2019-05-26T00:00:52.411Z,65.80
2019-05-26T00:03:22.209Z,66.40
2019-05-26T00:05:51.991Z,66.80
2019-05-26T00:08:21.819Z,67.80
2019-05-26T00:10:51.586Z,67.20
2019-05-26T00:13:21.503Z,67.30
2019-05-26T00:15:51.259Z,66.70
2019-05-26T00:18:21.075Z,66.70
2019-05-26T00:20:50.849Z,66.40
2019-05-26T00:23:20.643Z,66.80
2019-05-26T00:25:50.397Z,66.90
2019-05-26T00:28:20.215Z,67.20
2019-05-26T00:30:49.997Z,67.40
2019-05-26T00:33:19.784Z,68.10
2019-05-26T00:35:49.573Z,68.50
2019-05-26T00:38:19.376Z,68.00
2019-05-26T00:40:49.170Z,67.60
2019-05-26T00:43:18.986Z,66.70
2019-05-26T00:45:48.784Z,66.70
2019-05-26T00:48:18.604Z,66.00
2019-05-26T00:50:48.402Z,66.80
2019-05-26T00:53:18.196Z,67.20
2019-05-26T00:55:48.025Z,67.90
2019-05-26T00:58:17.832Z,68.60
2019-05-26T01:00:47.605Z,68.60
2019-05-26T01:03:17.499Z,68.90
2019-05-26T01:05:47.272Z,69.10
2019-05-26T01:08:17.187Z,67.50
2019-05-26T01:10:46.964Z,67.40
2019-05-26T01:13:16.753Z,66.60
2019-05-26T01:15:46.566Z,67.70
2019-05-26T01:18:16.342Z,69.00
2019-05-26T01:20:46.148Z,69.00
2019-05-26T01:23:15.917Z,69.10
2019-05-26T01:25:45.748Z,69.50
2019-05-26T01:28:15.518Z,68.60
2019-05-26T01:30:45.632Z,68.20
2019-05-26T01:33:15.502Z,70.00
2019-05-26T01:35:45.611Z,70.00
2019-05-26T01:38:23.624Z,70.00
2019-05-26T01:40:47.464Z,69.30
2019-05-26T01:43:17.222Z,69.40
2019-05-26T01:45:47.040Z,69.60
2019-05-26T01:48:16.800Z,70.40
2019-05-26T01:50:46.554Z,70.30
2019-05-26T01:53:16.363Z,68.90
2019-05-26T01:55:46.165Z,68.10
2019-05-26T01:58:15.980Z,68.80
2019-05-26T02:00:45.734Z,69.40
2019-05-26T02:03:15.566Z,68.80
2019-05-26T02:05:45.743Z,69.00
2019-05-26T02:08:15.583Z,70.10
2019-05-26T02:10:45.339Z,71.00
2019-05-26T02:13:15.121Z,70.00
2019-05-26T02:15:44.891Z,69.80
2019-05-26T02:18:14.720Z,69.70
2019-05-26T02:20:44.459Z,70.00
2019-05-26T02:23:14.252Z,69.20
2019-05-26T02:25:44.066Z,69.90
2019-05-26T02:28:13.841Z,70.00
2019-05-26T02:30:43.670Z,70.10
2019-05-26T02:33:13.428Z,69.90
2019-05-26T02:35:43.254Z,69.40
2019-05-26T02:38:13.002Z,69.90
2019-05-26T02:40:42.812Z,70.10
2019-05-26T02:43:12.783Z,70.40
2019-05-26T02:45:42.680Z,70.50
2019-05-26T02:48:12.455Z,70.50
2019-05-26T02:50:42.258Z,70.80
2019-05-26T02:53:12.034Z,71.30
2019-05-26T02:55:41.886Z,70.90
2019-05-26T02:58:11.657Z,70.60
2019-05-26T03:00:45.730Z,71.30
2019-05-26T03:03:16.931Z,71.70
2019-05-26T03:05:47.539Z,71.60
2019-05-26T03:08:17.845Z,70.10
2019-05-26T03:10:50.531Z,69.70
2019-05-26T03:13:20.319Z,69.70
2019-05-26T03:15:50.087Z,69.90
2019-05-26T03:18:19.894Z,69.70
2019-05-26T03:20:49.678Z,69.80
2019-05-26T03:23:19.592Z,70.60
2019-05-26T03:25:49.344Z,70.60
2019-05-26T03:28:19.100Z,70.40
2019-05-26T03:30:48.998Z,70.20
2019-05-26T03:33:18.787Z,70.40
2019-05-26T03:35:48.566Z,70.20
2019-05-26T03:38:18.405Z,70.00
2019-05-26T03:40:48.163Z,70.00
2019-05-26T03:43:17.942Z,70.00
2019-05-26T03:46:19.194Z,69.60
2019-05-26T03:48:49.749Z,69.50
2019-05-26T03:51:19.646Z,69.50
2019-05-26T03:53:49.480Z,69.60
2019-05-26T03:56:19.346Z,70.10
2019-05-26T03:58:49.115Z,70.30
2019-05-26T04:01:18.950Z,70.20
2019-05-26T04:03:48.719Z,69.70
2019-05-26T04:06:18.539Z,69.40
2019-05-26T04:08:48.288Z,68.80
2019-05-26T04:11:18.088Z,68.90
2019-05-26T04:13:47.887Z,69.10
2019-05-26T04:16:17.704Z,69.20
2019-05-26T04:18:47.469Z,69.50
2019-05-26T04:21:17.269Z,68.80
2019-05-26T04:23:47.036Z,69.10
2019-05-26T04:26:16.854Z,68.70
2019-05-26T04:28:47.022Z,68.60
2019-05-26T04:31:16.947Z,68.50
2019-05-26T04:33:46.688Z,68.80
2019-05-26T04:36:16.452Z,68.30
2019-05-26T04:38:46.270Z,68.60
2019-05-26T04:41:16.038Z,68.50
2019-05-26T04:43:45.847Z,68.40
2019-05-26T04:46:15.597Z,69.10
2019-05-26T04:48:45.387Z,69.30
2019-05-26T04:51:15.156Z,68.70
2019-05-26T04:53:44.945Z,68.20
2019-05-26T04:56:14.734Z,68.30
2019-05-26T04:58:44.651Z,68.20
2019-05-26T05:01:14.415Z,68.10
2019-05-26T05:03:44.231Z,68.00
2019-05-26T05:06:13.989Z,68.40
2019-05-26T05:08:43.804Z,68.10
2019-05-26T05:11:13.548Z,67.80
2019-05-26T05:13:43.363Z,67.20
2019-05-26T05:16:13.136Z,67.00
2019-05-26T05:18:42.927Z,67.50
2019-05-26T05:21:12.695Z,67.50
2019-05-26T05:23:42.502Z,67.30
2019-05-26T05:26:12.276Z,67.80
2019-05-26T05:28:42.159Z,66.80
2019-05-26T05:31:11.977Z,67.00
2019-05-26T05:33:41.720Z,66.40
2019-05-26T05:36:11.518Z,66.80
2019-05-26T05:38:41.269Z,66.70
2019-05-26T05:41:11.085Z,66.10
2019-05-26T05:43:40.862Z,66.50
2019-05-26T05:46:10.648Z,65.60
2019-05-26T05:48:40.519Z,65.30
2019-05-26T05:51:10.325Z,64.80
2019-05-26T05:53:40.119Z,64.50
2019-05-26T05:56:09.999Z,64.70
2019-05-26T05:58:39.849Z,63.60
2019-05-26T06:01:09.664Z,62.50
2019-05-26T06:03:39.461Z,63.50
2019-05-26T06:06:09.262Z,63.10
2019-05-26T06:08:39.024Z,63.70
2019-05-26T06:11:16.505Z,63.40
2019-05-26T06:13:40.260Z,63.40
2019-05-26T06:16:10.053Z,63.40
2019-05-26T06:18:39.819Z,62.90
2019-05-26T06:21:09.633Z,60.90
2019-05-26T06:23:39.399Z,61.40
2019-05-26T06:26:09.213Z,61.90
2019-05-26T06:28:38.968Z,62.30
2019-05-26T06:31:08.740Z,60.30
2019-05-26T06:33:38.529Z,60.60
2019-05-26T06:36:08.300Z,60.60
2019-05-26T06:38:38.157Z,59.70
2019-05-26T06:41:07.967Z,60.30
2019-05-26T06:43:37.768Z,60.60
2019-05-26T06:46:07.554Z,58.70
2019-05-26T06:48:37.391Z,58.90
2019-05-26T06:51:07.157Z,58.80
2019-05-26T06:53:37.630Z,57.60
2019-05-26T06:56:07.545Z,58.10
2019-05-26T06:58:37.327Z,57.80
2019-05-26T07:01:07.207Z,56.20
2019-05-26T07:03:36.976Z,57.60
2019-05-26T07:06:06.785Z,57.50
2019-05-26T07:08:36.536Z,56.90
2019-05-26T07:11:06.499Z,56.70
2019-05-26T07:13:36.254Z,56.50
2019-05-26T07:16:06.154Z,56.30
2019-05-26T07:18:35.904Z,56.60
2019-05-26T07:21:05.699Z,56.50
2019-05-26T07:23:35.465Z,55.90
2019-05-26T07:26:05.255Z,55.70
2019-05-26T07:28:35.069Z,55.80
2019-05-26T07:31:04.938Z,55.50
2019-05-26T07:33:34.961Z,55.40
2019-05-26T07:36:04.855Z,54.90
2019-05-26T07:38:34.669Z,55.40
2019-05-26T07:41:04.529Z,55.50
2019-05-26T07:43:34.382Z,55.80
2019-05-26T07:46:04.278Z,54.90
2019-05-26T07:48:36.019Z,54.90
2019-05-26T07:51:05.570Z,53.80
2019-05-26T07:53:35.345Z,54.10
2019-05-26T07:56:05.126Z,52.70
2019-05-26T07:58:34.972Z,52.60
2019-05-26T08:01:04.899Z,52.50
2019-05-26T08:03:34.654Z,52.30
2019-05-26T08:06:04.427Z,52.20
2019-05-26T08:08:34.553Z,51.70
2019-05-26T08:11:04.341Z,51.90
2019-05-26T08:13:34.257Z,52.10
2019-05-26T08:16:04.042Z,51.20
2019-05-26T08:18:34.837Z,50.50
2019-05-26T08:21:05.054Z,51.30
2019-05-26T08:23:35.075Z,50.00
2019-05-26T08:26:06.569Z,50.20
2019-05-26T08:28:38.203Z,50.20
2019-05-26T08:31:12.750Z,50.00
2019-05-26T08:33:42.526Z,49.60
2019-05-26T08:36:13.976Z,49.20
2019-05-26T08:38:45.912Z,49.50
2019-05-26T08:41:17.726Z,49.30
2019-05-26T08:43:49.854Z,49.10
2019-05-26T08:46:21.919Z,50.00
2019-05-26T08:48:54.024Z,49.90
2019-05-26T08:51:25.691Z,49.40
2019-05-26T08:53:57.976Z,49.80
2019-05-26T08:56:30.140Z,49.80
2019-05-26T08:59:01.883Z,49.60
2019-05-26T09:01:34.168Z,48.60
2019-05-26T09:04:06.334Z,48.50
2019-05-26T09:06:38.352Z,48.10
2019-05-26T09:09:10.814Z,49.00
2019-05-26T09:11:42.566Z,49.60
2019-05-26T09:14:14.427Z,48.80
2019-05-26T09:16:46.214Z,49.00
2019-05-26T09:19:17.217Z,47.70
2019-05-26T09:21:48.906Z,49.30
2019-05-26T09:24:20.411Z,47.90
2019-05-26T09:26:52.385Z,47.60
2019-05-26T09:29:23.979Z,48.20
2019-05-26T09:31:56.036Z,46.80
2019-05-26T09:34:27.784Z,47.40
2019-05-26T09:36:59.975Z,47.90
2019-05-26T09:39:32.136Z,47.30
2019-05-26T09:42:04.292Z,47.70
2019-05-26T09:44:36.442Z,47.60
2019-05-26T09:47:08.193Z,46.80
2019-05-26T09:49:40.470Z,46.20
2019-05-26T09:52:12.709Z,45.40
2019-05-26T09:54:44.912Z,45.20
2019-05-26T09:57:17.182Z,46.60
2019-05-26T09:59:49.112Z,46.40
2019-05-26T10:02:21.416Z,44.70
2019-05-26T10:04:53.306Z,45.50
2019-05-26T10:07:25.417Z,44.60
2019-05-26T10:09:57.572Z,44.00
2019-05-26T10:12:29.971Z,43.80
2019-05-26T10:15:02.175Z,43.70
2019-05-26T10:17:35.015Z,44.60
2019-05-26T10:20:07.886Z,44.20
2019-05-26T10:22:40.223Z,44.10
2019-05-26T10:25:14.092Z,44.30
2019-05-26T10:27:46.674Z,44.10
2019-05-26T10:30:19.133Z,45.90
2019-05-26T10:32:51.198Z,43.90
2019-05-26T10:35:23.389Z,43.50
2019-05-26T10:37:55.650Z,42.60
2019-05-26T10:40:28.871Z,43.80
2019-05-26T10:43:01.307Z,43.10
2019-05-26T10:45:34.608Z,41.70
2019-05-26T10:48:06.910Z,42.10
2019-05-26T10:50:41.799Z,42.20
2019-05-26T10:53:14.048Z,40.10
2019-05-26T10:55:46.424Z,40.10
2019-05-26T10:58:18.822Z,40.40
2019-05-26T11:00:51.033Z,40.00
2019-05-26T11:03:23.407Z,39.50
2019-05-26T11:05:57.256Z,39.60
2019-05-26T11:08:29.592Z,40.70
2019-05-26T11:11:04.969Z,40.70
2019-05-26T11:13:40.724Z,41.50
2019-05-26T11:16:12.312Z,42.50
2019-05-26T11:18:44.655Z,43.00
2019-05-26T11:21:16.888Z,43.90
2019-05-26T11:23:50.402Z,40.60
2019-05-26T11:26:23.073Z,39.50
2019-05-26T11:28:55.404Z,39.00
2019-05-26T11:31:27.659Z,39.40
2019-05-26T11:33:59.955Z,38.80
2019-05-26T11:36:32.193Z,38.30
2019-05-26T11:39:07.880Z,39.20
2019-05-26T11:41:40.895Z,38.40
2019-05-26T11:44:18.065Z,38.30
2019-05-26T11:46:48.500Z,39.20
2019-05-26T11:49:20.864Z,38.70
2019-05-26T11:51:52.918Z,38.90
2019-05-26T11:54:25.821Z,38.50
2019-05-26T11:56:59.409Z,38.70
2019-05-26T11:59:31.867Z,38.40
2019-05-26T12:02:04.111Z,39.30
2019-05-26T12:04:38.168Z,39.30
2019-05-26T12:07:10.545Z,40.70
2019-05-26T12:09:43.029Z,38.70
2019-05-26T12:12:15.188Z,34.00
2019-05-26T12:14:48.931Z,36.70
2019-05-26T12:17:22.163Z,36.60
2019-05-26T12:19:55.680Z,38.10
2019-05-26T12:22:27.941Z,37.90
2019-05-26T12:25:00.352Z,36.90
2019-05-26T12:27:33.206Z,36.40
2019-05-26T12:30:05.620Z,34.60
2019-05-26T12:32:38.008Z,33.80
2019-05-26T12:35:11.380Z,34.80
2019-05-26T12:37:44.073Z,35.80
2019-05-26T12:40:16.755Z,35.40
2019-05-26T12:42:48.980Z,34.60
2019-05-26T12:45:21.656Z,35.70
2019-05-26T12:47:54.403Z,36.80
2019-05-26T12:50:26.778Z,35.60
2019-05-26T12:52:59.061Z,36.00
2019-05-26T12:55:31.321Z,34.40
2019-05-26T12:58:04.419Z,35.60
2019-05-26T13:00:48.106Z,36.70
2019-05-26T13:03:10.577Z,37.50
2019-05-26T13:05:42.875Z,37.70
2019-05-26T13:08:17.911Z,37.60
2019-05-26T13:10:50.193Z,37.40
2019-05-26T13:13:22.499Z,36.80
2019-05-26T13:15:56.661Z,36.60
2019-05-26T13:18:29.085Z,37.00
2019-05-26T13:21:01.218Z,37.10
2019-05-26T13:23:37.282Z,38.20
2019-05-26T13:26:09.602Z,37.80
2019-05-26T13:28:41.817Z,39.10
2019-05-26T13:31:14.289Z,40.50
2019-05-26T13:33:46.560Z,38.60
2019-05-26T13:36:18.747Z,39.30
2019-05-26T13:38:50.886Z,38.40
2019-05-26T13:41:23.044Z,38.60
2019-05-26T13:43:54.995Z,38.90
2019-05-26T13:46:27.835Z,39.10
2019-05-26T13:49:00.138Z,39.80
2019-05-26T13:51:33.861Z,38.60
2019-05-26T13:54:05.834Z,39.20
2019-05-26T13:56:39.225Z,41.30
2019-05-26T13:59:11.226Z,41.00
2019-05-26T14:01:45.143Z,38.80
2019-05-26T14:04:17.507Z,39.10
2019-05-26T14:06:49.526Z,38.70
2019-05-26T14:09:21.755Z,37.60
2019-05-26T14:11:54.083Z,40.30
2019-05-26T14:14:27.049Z,40.40
2019-05-26T14:17:00.505Z,38.70
2019-05-26T14:19:33.113Z,38.20
2019-05-26T14:22:05.557Z,38.50
2019-05-26T14:24:50.865Z,39.30
2019-05-26T14:27:11.629Z,39.30
2019-05-26T14:29:43.768Z,38.20
2019-05-26T14:32:15.742Z,39.80
2019-05-26T14:34:48.085Z,40.20
2019-05-26T14:37:21.021Z,38.60
2019-05-26T14:39:53.417Z,38.90
2019-05-26T14:42:26.078Z,40.00
2019-05-26T14:44:59.037Z,38.90
2019-05-26T14:47:31.271Z,39.00
2019-05-26T14:50:06.540Z,39.20
2019-05-26T14:52:38.787Z,40.60
2019-05-26T14:55:11.689Z,39.90
2019-05-26T14:57:45.119Z,39.50
2019-05-26T15:00:19.115Z,38.90
2019-05-26T15:02:51.297Z,38.90
2019-05-26T15:05:23.718Z,38.50
2019-05-26T15:07:55.895Z,39.80
2019-05-26T15:10:28.229Z,39.80
2019-05-26T15:13:00.582Z,38.90
2019-05-26T15:15:35.127Z,39.30
2019-05-26T15:18:07.635Z,40.60
2019-05-26T15:20:40.593Z,40.00
2019-05-26T15:23:12.882Z,40.00
2019-05-26T15:25:46.168Z,39.80
2019-05-26T15:28:18.821Z,39.30
2019-05-26T15:30:51.072Z,39.90
2019-05-26T15:33:23.244Z,39.90
2019-05-26T15:35:55.307Z,40.00
2019-05-26T15:38:41.712Z,40.80
2019-05-26T15:41:01.103Z,40.50
2019-05-26T15:43:34.879Z,38.80
2019-05-26T15:46:23.873Z,40.30
2019-05-26T15:48:42.745Z,40.10
2019-05-26T15:51:14.694Z,39.60
2019-05-26T15:53:46.466Z,39.30
2019-05-26T15:56:17.188Z,40.00
2019-05-26T15:58:49.070Z,39.10
2019-05-26T16:01:21.196Z,40.00
2019-05-26T16:03:53.234Z,40.00
2019-05-26T16:06:25.305Z,40.20
2019-05-26T16:08:57.191Z,40.70
2019-05-26T16:11:29.567Z,40.60
2019-05-26T16:14:01.507Z,41.40
2019-05-26T16:16:41.100Z,42.50
2019-05-26T16:19:07.643Z,41.30
2019-05-26T16:21:41.194Z,41.50
2019-05-26T16:24:13.536Z,40.90
2019-05-26T16:26:45.876Z,41.20
2019-05-26T16:29:18.903Z,40.30
2019-05-26T16:31:51.544Z,40.50
2019-05-26T16:34:23.854Z,40.50
2019-05-26T16:36:56.237Z,40.80
2019-05-26T16:39:36.959Z,41.20
2019-05-26T16:42:09.709Z,41.20
2019-05-26T16:44:42.037Z,41.70
2019-05-26T16:47:14.552Z,41.20
2019-05-26T16:49:46.829Z,41.40
2019-05-26T16:52:19.187Z,41.20
2019-05-26T16:54:51.688Z,40.80
2019-05-26T16:57:25.423Z,41.50
2019-05-26T16:59:58.649Z,42.00
2019-05-26T17:02:32.690Z,42.30
2019-05-26T17:05:06.697Z,41.40
2019-05-26T17:07:40.273Z,41.80
2019-05-26T17:10:16.070Z,42.10
2019-05-26T17:12:49.724Z,42.00
2019-05-26T17:15:22.667Z,43.00
2019-05-26T17:17:56.129Z,43.80
2019-05-26T17:20:28.670Z,44.00
2019-05-26T17:23:01.399Z,44.30
2019-05-26T17:25:33.899Z,44.00
2019-05-26T17:28:07.655Z,44.70
2019-05-26T17:30:40.148Z,44.90
2019-05-26T17:33:12.611Z,44.80
2019-05-26T17:35:45.606Z,44.90
2019-05-26T17:38:20.517Z,45.20
2019-05-26T17:40:58.135Z,45.10
2019-05-26T17:43:30.597Z,44.30
2019-05-26T17:46:03.051Z,44.60
2019-05-26T17:48:35.934Z,44.90
2019-05-26T17:51:08.515Z,45.10
2019-05-26T17:53:40.909Z,44.60
2019-05-26T17:56:14.075Z,44.30
2019-05-26T17:58:48.168Z,44.70
2019-05-26T18:01:21.418Z,45.30
2019-05-26T18:03:56.324Z,46.00
2019-05-26T18:06:28.821Z,45.60
2019-05-26T18:09:01.961Z,45.00
2019-05-26T18:11:38.426Z,45.80
2019-05-26T18:14:10.875Z,46.20
2019-05-26T18:16:43.428Z,46.30
2019-05-26T18:19:17.555Z,46.40
2019-05-26T18:21:50.860Z,46.40
2019-05-26T18:24:27.401Z,46.50
2019-05-26T18:26:59.911Z,46.30
2019-05-26T18:29:32.768Z,46.20
2019-05-26T18:32:08.006Z,46.50
2019-05-26T18:34:43.133Z,46.50
2019-05-26T18:37:18.210Z,46.40
2019-05-26T18:39:50.698Z,46.50
2019-05-26T18:42:23.947Z,46.80
2019-05-26T18:44:58.185Z,46.70
2019-05-26T18:47:33.694Z,46.50
2019-05-26T18:50:08.552Z,47.50
2019-05-26T18:52:43.808Z,47.80
2019-05-26T18:55:19.704Z,47.70
2019-05-26T18:57:53.542Z,47.80
2019-05-26T19:00:31.006Z,48.10
2019-05-26T19:03:02.863Z,48.50
2019-05-26T19:05:40.879Z,48.60
2019-05-26T19:08:16.399Z,48.60
2019-05-26T19:10:48.833Z,48.80
2019-05-26T19:13:23.899Z,49.00
2019-05-26T19:15:57.817Z,49.50
2019-05-26T19:18:35.826Z,49.50
2019-05-26T19:21:09.101Z,49.70
2019-05-26T19:23:43.276Z,49.80
2019-05-26T19:26:17.834Z,49.90
2019-05-26T19:28:50.892Z,50.70
2019-05-26T19:31:23.891Z,50.40
2019-05-26T19:33:59.764Z,50.40
2019-05-26T19:36:33.431Z,50.20
2019-05-26T19:39:09.745Z,50.20
2019-05-26T19:41:45.900Z,49.90
2019-05-26T19:44:20.095Z,50.00
2019-05-26T19:46:53.143Z,50.00
2019-05-26T19:49:25.771Z,49.90
2019-05-26T19:52:01.797Z,49.60
2019-05-26T19:54:35.408Z,49.90
2019-05-26T19:57:08.124Z,49.70
2019-05-26T19:59:40.466Z,49.90
2019-05-26T20:02:18.294Z,50.20
2019-05-26T20:04:51.545Z,50.70
2019-05-26T20:07:26.196Z,50.80
2019-05-26T20:09:58.525Z,50.60
2019-05-26T20:12:31.017Z,50.60
2019-05-26T20:15:03.304Z,50.30
2019-05-26T20:17:35.767Z,50.40
2019-05-26T20:20:10.281Z,50.40
2019-05-26T20:22:42.925Z,50.60
2019-05-26T20:25:15.564Z,50.70
2019-05-26T20:27:47.994Z,51.00
2019-05-26T20:30:21.989Z,50.80
2019-05-26T20:32:57.812Z,51.00
2019-05-26T20:35:31.736Z,51.20
2019-05-26T20:38:04.181Z,51.20
2019-05-26T20:40:36.529Z,50.90
2019-05-26T20:43:08.842Z,51.00
2019-05-26T20:45:42.486Z,51.00
2019-05-26T20:48:14.870Z,50.90
2019-05-26T20:50:46.995Z,50.90
2019-05-26T20:53:19.353Z,50.90
2019-05-26T20:55:52.270Z,51.20
2019-05-26T20:58:24.890Z,51.40
2019-05-26T21:00:56.925Z,51.40
2019-05-26T21:03:29.277Z,51.70
2019-05-26T21:06:01.570Z,51.60
2019-05-26T21:08:33.731Z,51.80
2019-05-26T21:11:06.109Z,52.20
2019-05-26T21:13:38.256Z,51.90
2019-05-26T21:16:10.214Z,52.30
2019-05-26T21:18:42.169Z,53.10
2019-05-26T21:21:13.758Z,52.50
2019-05-26T21:23:45.451Z,52.90
2019-05-26T21:26:16.238Z,52.50
2019-05-26T21:28:46.587Z,52.40
2019-05-26T21:31:17.171Z,52.60
2019-05-26T21:33:46.989Z,52.80
2019-05-26T21:36:16.827Z,53.00
2019-05-26T21:38:46.585Z,53.00
2019-05-26T21:41:16.394Z,53.00
2019-05-26T21:43:46.170Z,53.00
2019-05-26T21:46:15.942Z,52.90
2019-05-26T21:48:45.727Z,53.10
2019-05-26T21:51:15.495Z,52.90
2019-05-26T21:53:45.294Z,53.60
2019-05-26T21:56:15.066Z,53.60
2019-05-26T21:58:44.851Z,54.20
2019-05-26T22:01:14.854Z,55.00
2019-05-26T22:03:44.619Z,54.70
2019-05-26T22:06:14.441Z,54.90
2019-05-26T22:08:44.195Z,55.00
2019-05-26T22:11:13.954Z,54.80
2019-05-26T22:13:43.744Z,54.80
2019-05-26T22:16:13.491Z,54.70
2019-05-26T22:18:43.290Z,54.90
2019-05-26T22:21:13.043Z,55.30
2019-05-26T22:23:42.864Z,55.50
2019-05-26T22:26:12.594Z,55.30
2019-05-26T22:28:42.342Z,56.10
2019-05-26T22:31:12.148Z,56.00
2019-05-26T22:33:41.935Z,56.60
2019-05-26T22:36:11.744Z,56.70
2019-05-26T22:38:41.504Z,56.70
2019-05-26T22:41:11.308Z,57.00
2019-05-26T22:43:41.071Z,56.40
2019-05-26T22:46:10.819Z,57.20
2019-05-26T22:48:40.626Z,57.80
2019-05-26T22:51:10.385Z,57.00
2019-05-26T22:53:40.159Z,57.00
2019-05-26T22:56:09.916Z,56.80
2019-05-26T22:58:39.711Z,56.30
2019-05-26T23:01:09.460Z,56.20
2019-05-26T23:03:39.263Z,56.30
2019-05-26T23:06:09.030Z,56.30
2019-05-26T23:08:38.772Z,56.20
2019-05-26T23:11:08.600Z,56.50
2019-05-26T23:13:38.359Z,56.60
2019-05-26T23:16:08.214Z,56.60
2019-05-26T23:18:37.965Z,56.30
2019-05-26T23:21:07.713Z,57.00
2019-05-26T23:23:37.511Z,57.90
2019-05-26T23:26:07.267Z,57.60
2019-05-26T23:28:37.057Z,57.70
2019-05-26T23:31:06.854Z,57.30
2019-05-26T23:33:36.692Z,56.70
2019-05-26T23:36:06.474Z,56.80
2019-05-26T23:38:36.246Z,56.70
2019-05-26T23:41:06.025Z,56.70
2019-05-26T23:43:35.828Z,56.50
2019-05-26T23:46:05.679Z,56.40
2019-05-26T23:48:35.465Z,56.40
2019-05-26T23:51:05.232Z,56.10
2019-05-26T23:53:35.017Z,56.20
2019-05-26T23:56:04.811Z,56.30
2019-05-26T23:58:34.617Z,56.20
